sensor_id;sensor_type;location;lat;lon;timestamp;P1;durP1;ratioP1;P2;durP2;ratioP2
26536;SDS011;14204;51.262;5.488;2023-05-15T00:00:00;34.15;;;25.70;;
26536;SDS011;14204;51.262;5.488;2023-05-15T00:02:26;35.47;;;23.85;;
26536;SDS011;14204;51.262;5.488;2023-05-15T00:04:52;37.55;;;27.00;;
26536;SDS011;14204;51.262;5.488;2023-05-15T00:07:18;35.42;;;25.08;;
26536;SDS011;14204;51.262;5.488;2023-05-15T00:09:43;35.95;;;25.65;;
26536;SDS011;14204;51.262;5.488;2023-05-15T00:12:09;34.90;;;26.92;;
26536;SDS011;14204;51.262;5.488;2023-05-15T00:14:35;34.08;;;25.38;;
26536;SDS011;14204;51.262;5.488;2023-05-15T00:17:00;33.80;;;25.33;;
26536;SDS011;14204;51.262;5.488;2023-05-15T00:19:26;36.92;;;26.23;;
26536;SDS011;14204;51.262;5.488;2023-05-15T00:21:52;36.90;;;27.63;;
26536;SDS011;14204;51.262;5.488;2023-05-15T00:24:20;33.70;;;26.42;;
26536;SDS011;14204;51.262;5.488;2023-05-15T00:26:46;36.75;;;25.45;;
26536;SDS011;14204;51.262;5.488;2023-05-15T00:29:11;35.42;;;26.40;;
26536;SDS011;14204;51.262;5.488;2023-05-15T00:31:37;33.30;;;26.88;;
26536;SDS011;14204;51.262;5.488;2023-05-15T00:34:03;37.83;;;26.67;;
26536;SDS011;14204;51.262;5.488;2023-05-15T00:36:28;38.28;;;27.73;;
26536;SDS011;14204;51.262;5.488;2023-05-15T00:38:54;40.25;;;25.83;;
26536;SDS011;14204;51.262;5.488;2023-05-15T00:41:21;42.95;;;30.23;;
26536;SDS011;14204;51.262;5.488;2023-05-15T00:43:48;40.35;;;28.50;;
26536;SDS011;14204;51.262;5.488;2023-05-15T00:46:16;39.72;;;28.08;;
26536;SDS011;14204;51.262;5.488;2023-05-15T00:48:43;37.35;;;28.60;;
26536;SDS011;14204;51.262;5.488;2023-05-15T00:51:10;38.03;;;29.02;;
26536;SDS011;14204;51.262;5.488;2023-05-15T00:53:36;36.53;;;28.85;;
26536;SDS011;14204;51.262;5.488;2023-05-15T00:56:02;38.30;;;29.20;;
26536;SDS011;14204;51.262;5.488;2023-05-15T00:58:30;38.50;;;29.83;;
26536;SDS011;14204;51.262;5.488;2023-05-15T01:00:56;40.00;;;29.65;;
26536;SDS011;14204;51.262;5.488;2023-05-15T01:03:22;34.83;;;27.02;;
26536;SDS011;14204;51.262;5.488;2023-05-15T01:05:48;43.78;;;29.27;;
26536;SDS011;14204;51.262;5.488;2023-05-15T01:10:57;44.60;;;32.38;;
26536;SDS011;14204;51.262;5.488;2023-05-15T01:13:24;39.10;;;29.52;;
26536;SDS011;14204;51.262;5.488;2023-05-15T01:15:50;37.38;;;28.60;;
26536;SDS011;14204;51.262;5.488;2023-05-15T01:18:15;41.17;;;28.25;;
26536;SDS011;14204;51.262;5.488;2023-05-15T01:28:47;42.33;;;31.30;;
26536;SDS011;14204;51.262;5.488;2023-05-15T01:31:29;38.10;;;28.20;;
26536;SDS011;14204;51.262;5.488;2023-05-15T01:33:58;39.72;;;28.92;;
26536;SDS011;14204;51.262;5.488;2023-05-15T01:39:07;50.15;;;32.88;;
26536;SDS011;14204;51.262;5.488;2023-05-15T01:47:13;46.17;;;32.42;;
26536;SDS011;14204;51.262;5.488;2023-05-15T01:49:54;47.92;;;33.00;;
26536;SDS011;14204;51.262;5.488;2023-05-15T01:52:34;43.33;;;33.47;;
26536;SDS011;14204;51.262;5.488;2023-05-15T01:55:04;47.75;;;34.83;;
26536;SDS011;14204;51.262;5.488;2023-05-15T01:57:32;54.03;;;33.55;;
26536;SDS011;14204;51.262;5.488;2023-05-15T01:59:59;41.70;;;31.25;;
26536;SDS011;14204;51.262;5.488;2023-05-15T02:02:26;49.38;;;34.70;;
26536;SDS011;14204;51.262;5.488;2023-05-15T02:04:54;48.80;;;35.55;;
26536;SDS011;14204;51.262;5.488;2023-05-15T02:07:20;46.03;;;32.85;;
26536;SDS011;14204;51.262;5.488;2023-05-15T02:09:47;44.25;;;33.13;;
26536;SDS011;14204;51.262;5.488;2023-05-15T02:12:15;51.75;;;36.78;;
26536;SDS011;14204;51.262;5.488;2023-05-15T02:14:41;44.05;;;33.10;;
26536;SDS011;14204;51.262;5.488;2023-05-15T02:17:08;46.65;;;34.92;;
26536;SDS011;14204;51.262;5.488;2023-05-15T02:19:33;50.53;;;35.10;;
26536;SDS011;14204;51.262;5.488;2023-05-15T02:21:59;45.58;;;33.80;;
26536;SDS011;14204;51.262;5.488;2023-05-15T02:24:25;50.50;;;37.25;;
26536;SDS011;14204;51.262;5.488;2023-05-15T02:37:51;53.13;;;35.20;;
26536;SDS011;14204;51.262;5.488;2023-05-15T02:40:19;55.20;;;38.90;;
26536;SDS011;14204;51.262;5.488;2023-05-15T02:42:47;56.08;;;37.75;;
26536;SDS011;14204;51.262;5.488;2023-05-15T02:45:16;58.50;;;41.42;;
26536;SDS011;14204;51.262;5.488;2023-05-15T02:47:43;53.35;;;38.83;;
26536;SDS011;14204;51.262;5.488;2023-05-15T02:50:10;54.05;;;38.63;;
26536;SDS011;14204;51.262;5.488;2023-05-15T02:52:36;58.17;;;38.78;;
26536;SDS011;14204;51.262;5.488;2023-05-15T02:55:02;52.17;;;38.95;;
26536;SDS011;14204;51.262;5.488;2023-05-15T02:57:28;57.67;;;40.17;;
26536;SDS011;14204;51.262;5.488;2023-05-15T02:59:54;53.03;;;40.17;;
26536;SDS011;14204;51.262;5.488;2023-05-15T03:02:23;59.50;;;42.13;;
26536;SDS011;14204;51.262;5.488;2023-05-15T03:04:49;62.70;;;42.13;;
26536;SDS011;14204;51.262;5.488;2023-05-15T03:07:15;60.05;;;41.88;;
26536;SDS011;14204;51.262;5.488;2023-05-15T03:09:40;56.90;;;41.45;;
26536;SDS011;14204;51.262;5.488;2023-05-15T03:12:06;63.53;;;44.90;;
26536;SDS011;14204;51.262;5.488;2023-05-15T03:14:33;65.13;;;44.53;;
26536;SDS011;14204;51.262;5.488;2023-05-15T03:16:59;62.75;;;44.80;;
26536;SDS011;14204;51.262;5.488;2023-05-15T03:19:25;64.20;;;44.17;;
26536;SDS011;14204;51.262;5.488;2023-05-15T03:21:50;67.28;;;44.20;;
26536;SDS011;14204;51.262;5.488;2023-05-15T03:24:16;66.18;;;44.22;;
26536;SDS011;14204;51.262;5.488;2023-05-15T03:26:42;67.43;;;46.10;;
26536;SDS011;14204;51.262;5.488;2023-05-15T03:29:09;68.03;;;47.80;;
26536;SDS011;14204;51.262;5.488;2023-05-15T03:31:34;73.55;;;51.13;;
26536;SDS011;14204;51.262;5.488;2023-05-15T03:34:00;67.60;;;48.85;;
26536;SDS011;14204;51.262;5.488;2023-05-15T03:36:26;64.63;;;48.10;;
26536;SDS011;14204;51.262;5.488;2023-05-15T03:38:52;71.03;;;48.22;;
26536;SDS011;14204;51.262;5.488;2023-05-15T03:41:18;71.00;;;49.08;;
26536;SDS011;14204;51.262;5.488;2023-05-15T03:43:45;77.30;;;51.85;;
26536;SDS011;14204;51.262;5.488;2023-05-15T03:46:10;69.95;;;49.20;;
26536;SDS011;14204;51.262;5.488;2023-05-15T03:48:36;76.00;;;49.33;;
26536;SDS011;14204;51.262;5.488;2023-05-15T03:51:02;77.10;;;49.95;;
26536;SDS011;14204;51.262;5.488;2023-05-15T03:53:28;77.53;;;52.13;;
26536;SDS011;14204;51.262;5.488;2023-05-15T03:55:54;74.13;;;50.60;;
26536;SDS011;14204;51.262;5.488;2023-05-15T03:58:20;80.60;;;51.83;;
26536;SDS011;14204;51.262;5.488;2023-05-15T04:00:46;79.18;;;54.95;;
26536;SDS011;14204;51.262;5.488;2023-05-15T04:03:12;78.03;;;52.95;;
26536;SDS011;14204;51.262;5.488;2023-05-15T04:05:37;78.43;;;51.63;;
26536;SDS011;14204;51.262;5.488;2023-05-15T04:08:03;73.70;;;50.60;;
26536;SDS011;14204;51.262;5.488;2023-05-15T04:10:29;75.80;;;50.83;;
26536;SDS011;14204;51.262;5.488;2023-05-15T04:12:56;78.78;;;50.97;;
26536;SDS011;14204;51.262;5.488;2023-05-15T04:15:23;83.13;;;53.90;;
26536;SDS011;14204;51.262;5.488;2023-05-15T04:17:50;86.60;;;54.45;;
26536;SDS011;14204;51.262;5.488;2023-05-15T04:20:18;78.03;;;51.40;;
26536;SDS011;14204;51.262;5.488;2023-05-15T04:22:48;86.35;;;56.58;;
26536;SDS011;14204;51.262;5.488;2023-05-15T04:25:14;83.72;;;55.25;;
26536;SDS011;14204;51.262;5.488;2023-05-15T04:27:40;86.60;;;55.63;;
26536;SDS011;14204;51.262;5.488;2023-05-15T04:30:07;86.53;;;53.90;;
26536;SDS011;14204;51.262;5.488;2023-05-15T04:32:33;92.35;;;56.95;;
26536;SDS011;14204;51.262;5.488;2023-05-15T04:35:02;84.15;;;56.03;;
26536;SDS011;14204;51.262;5.488;2023-05-15T04:37:29;84.82;;;55.30;;
26536;SDS011;14204;51.262;5.488;2023-05-15T04:39:55;92.32;;;57.10;;
26536;SDS011;14204;51.262;5.488;2023-05-15T04:42:21;88.78;;;56.40;;
26536;SDS011;14204;51.262;5.488;2023-05-15T04:44:47;88.97;;;58.35;;
26536;SDS011;14204;51.262;5.488;2023-05-15T04:47:13;88.80;;;58.05;;
26536;SDS011;14204;51.262;5.488;2023-05-15T04:49:39;87.88;;;57.63;;
26536;SDS011;14204;51.262;5.488;2023-05-15T04:52:06;94.45;;;58.80;;
26536;SDS011;14204;51.262;5.488;2023-05-15T04:54:32;90.70;;;59.70;;
26536;SDS011;14204;51.262;5.488;2023-05-15T04:56:58;99.80;;;60.33;;
26536;SDS011;14204;51.262;5.488;2023-05-15T04:59:24;97.38;;;60.08;;
26536;SDS011;14204;51.262;5.488;2023-05-15T05:01:50;103.30;;;68.40;;
26536;SDS011;14204;51.262;5.488;2023-05-15T05:04:15;105.38;;;64.15;;
26536;SDS011;14204;51.262;5.488;2023-05-15T05:06:45;102.10;;;62.28;;
26536;SDS011;14204;51.262;5.488;2023-05-15T05:09:11;106.00;;;60.30;;
26536;SDS011;14204;51.262;5.488;2023-05-15T05:11:39;95.45;;;57.72;;
26536;SDS011;14204;51.262;5.488;2023-05-15T05:14:09;116.13;;;66.25;;
26536;SDS011;14204;51.262;5.488;2023-05-15T05:16:35;111.45;;;65.82;;
26536;SDS011;14204;51.262;5.488;2023-05-15T05:19:01;109.10;;;64.63;;
26536;SDS011;14204;51.262;5.488;2023-05-15T05:21:27;107.80;;;60.80;;
26536;SDS011;14204;51.262;5.488;2023-05-15T05:23:53;114.10;;;62.33;;
26536;SDS011;14204;51.262;5.488;2023-05-15T05:26:19;109.85;;;59.80;;
26536;SDS011;14204;51.262;5.488;2023-05-15T05:28:45;110.07;;;60.25;;
26536;SDS011;14204;51.262;5.488;2023-05-15T05:31:10;111.05;;;63.38;;
26536;SDS011;14204;51.262;5.488;2023-05-15T05:33:36;108.97;;;61.95;;
26536;SDS011;14204;51.262;5.488;2023-05-15T05:36:01;105.05;;;59.60;;
26536;SDS011;14204;51.262;5.488;2023-05-15T05:38:27;110.93;;;63.13;;
26536;SDS011;14204;51.262;5.488;2023-05-15T05:40:53;108.07;;;59.88;;
26536;SDS011;14204;51.262;5.488;2023-05-15T05:43:19;112.10;;;62.33;;
26536;SDS011;14204;51.262;5.488;2023-05-15T05:45:45;112.15;;;62.38;;
26536;SDS011;14204;51.262;5.488;2023-05-15T05:48:11;112.93;;;59.70;;
26536;SDS011;14204;51.262;5.488;2023-05-15T05:50:38;111.97;;;62.63;;
26536;SDS011;14204;51.262;5.488;2023-05-15T05:53:05;110.00;;;59.95;;
26536;SDS011;14204;51.262;5.488;2023-05-15T05:55:31;112.75;;;62.00;;
26536;SDS011;14204;51.262;5.488;2023-05-15T05:57:56;108.75;;;62.67;;
26536;SDS011;14204;51.262;5.488;2023-05-15T06:00:22;110.47;;;61.80;;
26536;SDS011;14204;51.262;5.488;2023-05-15T06:02:51;104.38;;;57.33;;
26536;SDS011;14204;51.262;5.488;2023-05-15T06:05:25;105.40;;;58.10;;
26536;SDS011;14204;51.262;5.488;2023-05-15T06:07:52;105.97;;;56.70;;
26536;SDS011;14204;51.262;5.488;2023-05-15T06:10:18;98.13;;;53.10;;
26536;SDS011;14204;51.262;5.488;2023-05-15T06:12:44;102.20;;;55.95;;
26536;SDS011;14204;51.262;5.488;2023-05-15T06:15:10;94.78;;;56.35;;
26536;SDS011;14204;51.262;5.488;2023-05-15T06:17:36;99.82;;;56.28;;
26536;SDS011;14204;51.262;5.488;2023-05-15T06:20:03;98.22;;;55.47;;
26536;SDS011;14204;51.262;5.488;2023-05-15T06:22:33;100.75;;;56.70;;
26536;SDS011;14204;51.262;5.488;2023-05-15T06:25:00;103.10;;;59.63;;
26536;SDS011;14204;51.262;5.488;2023-05-15T06:27:27;102.10;;;55.65;;
26536;SDS011;14204;51.262;5.488;2023-05-15T06:29:53;101.75;;;56.97;;
26536;SDS011;14204;51.262;5.488;2023-05-15T06:32:19;106.68;;;59.25;;
26536;SDS011;14204;51.262;5.488;2023-05-15T06:34:45;108.00;;;60.60;;
26536;SDS011;14204;51.262;5.488;2023-05-15T06:37:11;107.07;;;59.45;;
26536;SDS011;14204;51.262;5.488;2023-05-15T06:39:36;102.18;;;59.35;;
26536;SDS011;14204;51.262;5.488;2023-05-15T06:42:02;110.68;;;62.70;;
26536;SDS011;14204;51.262;5.488;2023-05-15T06:44:31;111.28;;;63.67;;
26536;SDS011;14204;51.262;5.488;2023-05-15T06:46:57;115.63;;;63.45;;
26536;SDS011;14204;51.262;5.488;2023-05-15T06:49:23;112.40;;;63.28;;
26536;SDS011;14204;51.262;5.488;2023-05-15T06:51:49;112.35;;;64.05;;
26536;SDS011;14204;51.262;5.488;2023-05-15T06:54:15;128.07;;;67.75;;
26536;SDS011;14204;51.262;5.488;2023-05-15T06:56:41;123.00;;;68.95;;
26536;SDS011;14204;51.262;5.488;2023-05-15T06:59:07;104.70;;;58.95;;
26536;SDS011;14204;51.262;5.488;2023-05-15T07:01:33;102.95;;;59.50;;
26536;SDS011;14204;51.262;5.488;2023-05-15T07:03:59;107.40;;;60.75;;
26536;SDS011;14204;51.262;5.488;2023-05-15T07:06:25;96.57;;;57.35;;
26536;SDS011;14204;51.262;5.488;2023-05-15T07:08:51;96.18;;;59.67;;
26536;SDS011;14204;51.262;5.488;2023-05-15T07:11:17;97.53;;;59.10;;
26536;SDS011;14204;51.262;5.488;2023-05-15T07:13:42;91.13;;;58.60;;
26536;SDS011;14204;51.262;5.488;2023-05-15T07:16:08;94.25;;;58.28;;
26536;SDS011;14204;51.262;5.488;2023-05-15T07:18:34;96.20;;;58.45;;
26536;SDS011;14204;51.262;5.488;2023-05-15T07:21:00;90.88;;;59.30;;
26536;SDS011;14204;51.262;5.488;2023-05-15T07:23:26;89.70;;;56.33;;
26536;SDS011;14204;51.262;5.488;2023-05-15T07:25:53;89.57;;;55.55;;
26536;SDS011;14204;51.262;5.488;2023-05-15T07:28:19;92.45;;;59.05;;
26536;SDS011;14204;51.262;5.488;2023-05-15T07:30:45;97.32;;;61.63;;
26536;SDS011;14204;51.262;5.488;2023-05-15T07:33:11;90.70;;;56.13;;
26536;SDS011;14204;51.262;5.488;2023-05-15T07:35:37;90.78;;;56.65;;
26536;SDS011;14204;51.262;5.488;2023-05-15T07:38:03;88.45;;;59.35;;
26536;SDS011;14204;51.262;5.488;2023-05-15T07:40:29;89.68;;;59.10;;
26536;SDS011;14204;51.262;5.488;2023-05-15T07:42:57;88.30;;;54.38;;
26536;SDS011;14204;51.262;5.488;2023-05-15T07:45:23;87.15;;;54.63;;
26536;SDS011;14204;51.262;5.488;2023-05-15T07:47:49;82.03;;;52.33;;
26536;SDS011;14204;51.262;5.488;2023-05-15T07:50:15;77.20;;;48.80;;
26536;SDS011;14204;51.262;5.488;2023-05-15T07:52:41;70.57;;;46.58;;
26536;SDS011;14204;51.262;5.488;2023-05-15T07:55:08;65.63;;;42.97;;
26536;SDS011;14204;51.262;5.488;2023-05-15T07:57:34;67.70;;;45.92;;
26536;SDS011;14204;51.262;5.488;2023-05-15T08:00:00;68.88;;;44.38;;
26536;SDS011;14204;51.262;5.488;2023-05-15T08:02:31;62.55;;;43.85;;
26536;SDS011;14204;51.262;5.488;2023-05-15T08:04:56;58.80;;;40.00;;
26536;SDS011;14204;51.262;5.488;2023-05-15T08:07:22;51.85;;;35.85;;
26536;SDS011;14204;51.262;5.488;2023-05-15T08:09:48;49.60;;;34.88;;
26536;SDS011;14204;51.262;5.488;2023-05-15T08:12:20;52.60;;;35.35;;
26536;SDS011;14204;51.262;5.488;2023-05-15T08:14:50;50.95;;;35.67;;
26536;SDS011;14204;51.262;5.488;2023-05-15T08:17:17;50.33;;;34.03;;
26536;SDS011;14204;51.262;5.488;2023-05-15T08:19:43;53.50;;;36.00;;
26536;SDS011;14204;51.262;5.488;2023-05-15T08:22:09;50.22;;;34.70;;
26536;SDS011;14204;51.262;5.488;2023-05-15T08:24:37;48.72;;;33.90;;
26536;SDS011;14204;51.262;5.488;2023-05-15T08:27:04;48.30;;;34.03;;
26536;SDS011;14204;51.262;5.488;2023-05-15T08:29:31;47.92;;;34.63;;
26536;SDS011;14204;51.262;5.488;2023-05-15T08:31:57;50.30;;;34.75;;
26536;SDS011;14204;51.262;5.488;2023-05-15T08:34:23;48.55;;;34.08;;
26536;SDS011;14204;51.262;5.488;2023-05-15T08:36:49;43.22;;;32.20;;
26536;SDS011;14204;51.262;5.488;2023-05-15T08:39:16;43.00;;;32.78;;
26536;SDS011;14204;51.262;5.488;2023-05-15T08:41:55;40.95;;;30.88;;
26536;SDS011;14204;51.262;5.488;2023-05-15T08:44:22;44.13;;;31.55;;
26536;SDS011;14204;51.262;5.488;2023-05-15T08:46:48;42.78;;;31.42;;
26536;SDS011;14204;51.262;5.488;2023-05-15T08:51:47;38.53;;;28.73;;
26536;SDS011;14204;51.262;5.488;2023-05-15T08:54:14;38.92;;;29.20;;
26536;SDS011;14204;51.262;5.488;2023-05-15T08:56:40;39.53;;;29.67;;
26536;SDS011;14204;51.262;5.488;2023-05-15T08:59:07;33.63;;;27.48;;
26536;SDS011;14204;51.262;5.488;2023-05-15T09:01:33;36.45;;;26.83;;
26536;SDS011;14204;51.262;5.488;2023-05-15T09:03:59;40.88;;;29.10;;
26536;SDS011;14204;51.262;5.488;2023-05-15T09:06:25;41.00;;;29.55;;
26536;SDS011;14204;51.262;5.488;2023-05-15T09:08:52;35.63;;;28.05;;
26536;SDS011;14204;51.262;5.488;2023-05-15T09:11:21;36.08;;;26.02;;
26536;SDS011;14204;51.262;5.488;2023-05-15T09:13:48;35.58;;;25.35;;
26536;SDS011;14204;51.262;5.488;2023-05-15T09:16:14;35.80;;;27.15;;
26536;SDS011;14204;51.262;5.488;2023-05-15T09:18:40;32.95;;;23.90;;
26536;SDS011;14204;51.262;5.488;2023-05-15T09:23:49;33.47;;;23.90;;
26536;SDS011;14204;51.262;5.488;2023-05-15T09:26:15;28.63;;;22.52;;
26536;SDS011;14204;51.262;5.488;2023-05-15T09:28:41;28.23;;;21.60;;
26536;SDS011;14204;51.262;5.488;2023-05-15T09:31:07;29.92;;;22.05;;
26536;SDS011;14204;51.262;5.488;2023-05-15T09:33:34;29.98;;;23.73;;
26536;SDS011;14204;51.262;5.488;2023-05-15T09:36:01;32.70;;;22.33;;
26536;SDS011;14204;51.262;5.488;2023-05-15T09:38:28;31.45;;;20.92;;
26536;SDS011;14204;51.262;5.488;2023-05-15T09:41:01;25.40;;;20.23;;
26536;SDS011;14204;51.262;5.488;2023-05-15T09:43:28;28.67;;;21.02;;
26536;SDS011;14204;51.262;5.488;2023-05-15T09:45:58;25.48;;;20.55;;
26536;SDS011;14204;51.262;5.488;2023-05-15T09:48:24;29.20;;;21.60;;
26536;SDS011;14204;51.262;5.488;2023-05-15T09:50:50;34.15;;;22.27;;
26536;SDS011;14204;51.262;5.488;2023-05-15T09:53:16;29.40;;;23.30;;
26536;SDS011;14204;51.262;5.488;2023-05-15T09:55:42;27.90;;;20.90;;
26536;SDS011;14204;51.262;5.488;2023-05-15T09:58:12;25.52;;;21.23;;
26536;SDS011;14204;51.262;5.488;2023-05-15T10:00:40;27.75;;;20.83;;
26536;SDS011;14204;51.262;5.488;2023-05-15T10:03:07;28.80;;;21.20;;
26536;SDS011;14204;51.262;5.488;2023-05-15T10:05:34;25.40;;;19.35;;
26536;SDS011;14204;51.262;5.488;2023-05-15T10:08:00;23.80;;;18.20;;
26536;SDS011;14204;51.262;5.488;2023-05-15T10:10:27;22.88;;;19.38;;
26536;SDS011;14204;51.262;5.488;2023-05-15T10:12:55;25.95;;;19.48;;
26536;SDS011;14204;51.262;5.488;2023-05-15T10:15:23;25.35;;;19.42;;
26536;SDS011;14204;51.262;5.488;2023-05-15T10:17:50;28.33;;;20.63;;
26536;SDS011;14204;51.262;5.488;2023-05-15T10:20:17;31.30;;;21.98;;
26536;SDS011;14204;51.262;5.488;2023-05-15T10:22:47;29.40;;;24.45;;
26536;SDS011;14204;51.262;5.488;2023-05-15T10:28:07;28.20;;;22.83;;
26536;SDS011;14204;51.262;5.488;2023-05-15T10:30:34;31.00;;;23.40;;
26536;SDS011;14204;51.262;5.488;2023-05-15T10:33:00;32.28;;;24.35;;
26536;SDS011;14204;51.262;5.488;2023-05-15T10:35:28;31.30;;;24.15;;
26536;SDS011;14204;51.262;5.488;2023-05-15T10:37:54;32.22;;;25.30;;
26536;SDS011;14204;51.262;5.488;2023-05-15T10:40:22;29.00;;;25.00;;
26536;SDS011;14204;51.262;5.488;2023-05-15T10:42:48;31.48;;;22.00;;
26536;SDS011;14204;51.262;5.488;2023-05-15T10:45:14;29.95;;;24.27;;
26536;SDS011;14204;51.262;5.488;2023-05-15T10:47:41;29.27;;;23.05;;
26536;SDS011;14204;51.262;5.488;2023-05-15T10:50:08;28.02;;;24.25;;
26536;SDS011;14204;51.262;5.488;2023-05-15T10:52:36;32.67;;;26.80;;
26536;SDS011;14204;51.262;5.488;2023-05-15T10:55:23;30.02;;;24.48;;
26536;SDS011;14204;51.262;5.488;2023-05-15T10:57:48;26.67;;;21.77;;
26536;SDS011;14204;51.262;5.488;2023-05-15T11:02:46;30.63;;;25.70;;
26536;SDS011;14204;51.262;5.488;2023-05-15T11:05:13;35.75;;;27.23;;
26536;SDS011;14204;51.262;5.488;2023-05-15T11:07:38;36.03;;;29.80;;
26536;SDS011;14204;51.262;5.488;2023-05-15T11:12:55;32.90;;;26.83;;
26536;SDS011;14204;51.262;5.488;2023-05-15T11:15:22;33.38;;;26.85;;
26536;SDS011;14204;51.262;5.488;2023-05-15T11:18:04;33.15;;;26.73;;
26536;SDS011;14204;51.262;5.488;2023-05-15T11:20:37;31.40;;;27.92;;
26536;SDS011;14204;51.262;5.488;2023-05-15T11:23:07;33.28;;;27.00;;
26536;SDS011;14204;51.262;5.488;2023-05-15T11:25:33;34.53;;;28.85;;
26536;SDS011;14204;51.262;5.488;2023-05-15T11:28:01;39.75;;;29.75;;
26536;SDS011;14204;51.262;5.488;2023-05-15T11:30:37;39.08;;;30.85;;
26536;SDS011;14204;51.262;5.488;2023-05-15T11:33:08;38.97;;;29.85;;
26536;SDS011;14204;51.262;5.488;2023-05-15T11:43:26;39.92;;;31.63;;
26536;SDS011;14204;51.262;5.488;2023-05-15T11:46:08;39.95;;;31.13;;
26536;SDS011;14204;51.262;5.488;2023-05-15T11:51:00;40.33;;;31.23;;
26536;SDS011;14204;51.262;5.488;2023-05-15T11:53:30;40.85;;;28.00;;
26536;SDS011;14204;51.262;5.488;2023-05-15T11:55:56;37.28;;;29.70;;
26536;SDS011;14204;51.262;5.488;2023-05-15T11:58:23;35.95;;;30.05;;
26536;SDS011;14204;51.262;5.488;2023-05-15T12:00:50;35.88;;;28.50;;
26536;SDS011;14204;51.262;5.488;2023-05-15T12:03:24;39.08;;;32.17;;
26536;SDS011;14204;51.262;5.488;2023-05-15T12:05:57;38.45;;;29.77;;
26536;SDS011;14204;51.262;5.488;2023-05-15T12:08:22;41.08;;;32.42;;
26536;SDS011;14204;51.262;5.488;2023-05-15T12:10:48;36.78;;;29.70;;
26536;SDS011;14204;51.262;5.488;2023-05-15T12:13:14;37.40;;;29.23;;
26536;SDS011;14204;51.262;5.488;2023-05-15T12:15:45;37.40;;;29.77;;
26536;SDS011;14204;51.262;5.488;2023-05-15T12:18:11;36.95;;;30.98;;
26536;SDS011;14204;51.262;5.488;2023-05-15T12:20:38;37.38;;;30.45;;
26536;SDS011;14204;51.262;5.488;2023-05-15T12:23:14;40.00;;;30.13;;
26536;SDS011;14204;51.262;5.488;2023-05-15T12:25:40;38.10;;;29.00;;
26536;SDS011;14204;51.262;5.488;2023-05-15T12:28:08;35.55;;;29.17;;
26536;SDS011;14204;51.262;5.488;2023-05-15T12:30:36;36.58;;;28.30;;
26536;SDS011;14204;51.262;5.488;2023-05-15T12:33:03;36.63;;;28.55;;
26536;SDS011;14204;51.262;5.488;2023-05-15T12:35:32;41.40;;;31.88;;
26536;SDS011;14204;51.262;5.488;2023-05-15T12:38:05;40.63;;;32.30;;
26536;SDS011;14204;51.262;5.488;2023-05-15T12:40:35;45.45;;;35.15;;
26536;SDS011;14204;51.262;5.488;2023-05-15T12:43:05;46.63;;;36.78;;
26536;SDS011;14204;51.262;5.488;2023-05-15T12:45:31;52.42;;;38.78;;
26536;SDS011;14204;51.262;5.488;2023-05-15T12:47:59;52.92;;;38.08;;
26536;SDS011;14204;51.262;5.488;2023-05-15T12:50:25;58.45;;;40.35;;
26536;SDS011;14204;51.262;5.488;2023-05-15T12:52:59;56.92;;;42.30;;
26536;SDS011;14204;51.262;5.488;2023-05-15T12:55:27;56.50;;;42.63;;
26536;SDS011;14204;51.262;5.488;2023-05-15T12:58:03;57.28;;;40.95;;
26536;SDS011;14204;51.262;5.488;2023-05-15T13:00:32;55.55;;;40.33;;
26536;SDS011;14204;51.262;5.488;2023-05-15T13:02:59;56.70;;;41.75;;
26536;SDS011;14204;51.262;5.488;2023-05-15T13:05:25;59.22;;;39.33;;
26536;SDS011;14204;51.262;5.488;2023-05-15T13:07:52;54.85;;;36.70;;
26536;SDS011;14204;51.262;5.488;2023-05-15T13:10:22;55.42;;;38.15;;
26536;SDS011;14204;51.262;5.488;2023-05-15T13:12:49;56.38;;;37.47;;
26536;SDS011;14204;51.262;5.488;2023-05-15T13:18:02;59.28;;;39.85;;
26536;SDS011;14204;51.262;5.488;2023-05-15T13:20:34;57.83;;;40.03;;
26536;SDS011;14204;51.262;5.488;2023-05-15T13:23:02;62.80;;;44.33;;
26536;SDS011;14204;51.262;5.488;2023-05-15T13:25:28;58.40;;;41.20;;
26536;SDS011;14204;51.262;5.488;2023-05-15T13:27:58;51.78;;;36.60;;
26536;SDS011;14204;51.262;5.488;2023-05-15T13:30:25;49.17;;;34.25;;
26536;SDS011;14204;51.262;5.488;2023-05-15T13:32:52;55.78;;;37.00;;
26536;SDS011;14204;51.262;5.488;2023-05-15T13:35:19;50.95;;;35.53;;
26536;SDS011;14204;51.262;5.488;2023-05-15T13:37:45;51.83;;;37.08;;
26536;SDS011;14204;51.262;5.488;2023-05-15T13:40:11;54.83;;;37.70;;
26536;SDS011;14204;51.262;5.488;2023-05-15T13:42:38;58.00;;;39.05;;
26536;SDS011;14204;51.262;5.488;2023-05-15T13:45:05;55.95;;;40.08;;
26536;SDS011;14204;51.262;5.488;2023-05-15T13:47:32;57.67;;;39.38;;
26536;SDS011;14204;51.262;5.488;2023-05-15T13:49:58;53.80;;;36.47;;
26536;SDS011;14204;51.262;5.488;2023-05-15T13:52:24;53.95;;;32.67;;
26536;SDS011;14204;51.262;5.488;2023-05-15T13:54:51;47.03;;;33.67;;
26536;SDS011;14204;51.262;5.488;2023-05-15T13:57:19;46.30;;;33.17;;
26536;SDS011;14204;51.262;5.488;2023-05-15T13:59:45;49.47;;;34.67;;
26536;SDS011;14204;51.262;5.488;2023-05-15T14:02:11;52.75;;;36.58;;
26536;SDS011;14204;51.262;5.488;2023-05-15T14:04:38;47.80;;;34.03;;
26536;SDS011;14204;51.262;5.488;2023-05-15T14:07:04;49.13;;;34.72;;
26536;SDS011;14204;51.262;5.488;2023-05-15T14:09:30;50.03;;;37.65;;
26536;SDS011;14204;51.262;5.488;2023-05-15T14:11:56;47.17;;;34.58;;
26536;SDS011;14204;51.262;5.488;2023-05-15T14:14:22;49.55;;;34.25;;
26536;SDS011;14204;51.262;5.488;2023-05-15T14:16:48;49.88;;;33.75;;
26536;SDS011;14204;51.262;5.488;2023-05-15T14:19:14;48.78;;;33.65;;
26536;SDS011;14204;51.262;5.488;2023-05-15T14:21:40;41.60;;;30.25;;
26536;SDS011;14204;51.262;5.488;2023-05-15T14:24:06;43.13;;;31.17;;
26536;SDS011;14204;51.262;5.488;2023-05-15T14:26:34;44.78;;;32.17;;
26536;SDS011;14204;51.262;5.488;2023-05-15T14:29:01;51.97;;;37.25;;
26536;SDS011;14204;51.262;5.488;2023-05-15T14:31:27;53.15;;;38.47;;
26536;SDS011;14204;51.262;5.488;2023-05-15T14:33:52;53.60;;;39.17;;
26536;SDS011;14204;51.262;5.488;2023-05-15T14:36:18;59.22;;;41.97;;
26536;SDS011;14204;51.262;5.488;2023-05-15T14:38:44;65.00;;;44.50;;
26536;SDS011;14204;51.262;5.488;2023-05-15T14:41:14;65.45;;;45.72;;
26536;SDS011;14204;51.262;5.488;2023-05-15T14:43:39;64.70;;;44.10;;
26536;SDS011;14204;51.262;5.488;2023-05-15T14:46:05;64.00;;;45.33;;
26536;SDS011;14204;51.262;5.488;2023-05-15T14:48:31;65.70;;;45.30;;
26536;SDS011;14204;51.262;5.488;2023-05-15T14:50:58;70.28;;;46.75;;
26536;SDS011;14204;51.262;5.488;2023-05-15T14:53:24;75.05;;;50.45;;
26536;SDS011;14204;51.262;5.488;2023-05-15T14:55:51;67.65;;;45.08;;
26536;SDS011;14204;51.262;5.488;2023-05-15T14:58:18;69.63;;;47.08;;
26536;SDS011;14204;51.262;5.488;2023-05-15T15:00:44;69.85;;;48.08;;
26536;SDS011;14204;51.262;5.488;2023-05-15T15:03:10;67.90;;;45.00;;
26536;SDS011;14204;51.262;5.488;2023-05-15T15:05:35;64.45;;;42.78;;
26536;SDS011;14204;51.262;5.488;2023-05-15T15:10:27;69.35;;;43.17;;
26536;SDS011;14204;51.262;5.488;2023-05-15T15:12:53;67.22;;;43.40;;
26536;SDS011;14204;51.262;5.488;2023-05-15T15:15:19;65.63;;;43.88;;
26536;SDS011;14204;51.262;5.488;2023-05-15T15:17:45;67.57;;;43.03;;